Time;durP1;ratioP1;P1;durP2;ratioP2;P2;SDS_P1;SDS_P2;PMS_P1;PMS_P2;Temp;Humidity;BMP_temperature;BMP_pressure;BME280_temperature;BME280_humidity;BME280_pressure;Samples;Min_cycle;Max_cycle;Signal;HPM_P1;HPM_P2
2022/01/21 00:01:06;;;;;;;;;;;;;;;;;;4999282;28;20337;-58
2022/01/21 00:03:31;;;;;;;;;;;;;;;;;;4990497;28;19929;-58
2022/01/21 00:05:57;;;;;;;;;;;;;;;;;;4997495;28;19968;-58
2022/01/21 00:08:22;;;;;;;;;;;;;;;;;;4996242;28;19965;-58
2022/01/21 00:10:48;;;;;;;;;;;;;;;;;;5007212;28;19925;-58
2022/01/21 00:13:55;;;;;;;;;;;;;;;;;;4997716;28;19925;-60
2022/01/21 00:16:02;;;;;;;;;;;;;;;;;;4996232;28;19983;-58
2022/01/21 00:18:27;;;;;;;;;;;;;;;;;;4996876;28;19925;-60
2022/01/21 00:31:48;;;;;;;;;;;;;;;;;;5004274;28;19990;-57
2022/01/21 00:34:13;;;;;;;;;;;;;;;;;;4997491;28;19926;-58
2022/01/21 00:36:39;;;;;;;;;;;;;;;;;;4996713;28;20283;-59
2022/01/21 00:39:05;;;;;;;;;;;;;;;;;;4998338;28;19933;-59
2022/01/21 00:41:34;;;;;;;;;;;;;;;;;;5014121;28;19929;-58
2022/01/21 00:44:00;;;;;;;;;;;;;;;;;;4997802;28;19922;-59
2022/01/21 00:46:25;;;;;;;;;;;;;;;;;;4996489;28;19933;-58
2022/01/21 00:48:51;;;;;;;;;;;;;;;;;;4996590;28;19929;-58
2022/01/21 00:51:16;;;;;;;;;;;;;;;;;;4998110;28;20485;-59
2022/01/21 00:53:41;;;;;;;;;;;;;;;;;;4996772;28;19967;-58
2022/01/21 00:56:07;;;;;;;;;;;;;;;;;;4997619;28;19937;-57
2022/01/21 00:58:32;;;;;;;;;;;;;;;;;;4997210;28;20429;-57
2022/01/21 01:00:58;;;;;;;;;;;;;;;;;;5006316;28;19952;-58
2022/01/21 01:03:23;;;;;;;;;;;;;;;;;;4996329;28;19979;-58
2022/01/21 01:05:51;;;;;;;;;;;;;;;;;;4998410;28;20020;-58
2022/01/21 01:08:16;;;;;;;;;;;;;;;;;;5007912;28;20317;-57
2022/01/21 01:21:16;;;;;;;;;;;;;;;;;;4998189;28;19968;-57
2022/01/21 01:29:09;;;;;;;;;;;;;;;;;;5001631;28;19936;-56
2022/01/21 01:31:34;;;;;;;;;;;;;;;;;;5007887;28;19921;-56
2022/01/21 01:34:01;;;;;;;;;;;;;;;;;;5013315;28;19921;-59
2022/01/21 01:36:27;;;;;;;;;;;;;;;;;;5001675;28;20012;-59
2022/01/21 01:41:26;;;;;;;;;;;;;;;;;;5001247;28;19936;-57
2022/01/21 01:49:37;;;;;;;;;;;;;;;;;;4999997;28;20083;-59
2022/01/21 01:52:02;;;;;;;;;;;;;;;;;;4999343;28;20008;-58
2022/01/21 01:54:27;;;;;;;;;;;;;;;;;;4999660;28;20095;-59
2022/01/21 01:56:53;;;;;;;;;;;;;;;;;;4999079;28;19975;-58
2022/01/21 01:59:18;;;;;;;;;;;;;;;;;;5007020;28;19922;-57
2022/01/21 02:01:44;;;;;;;;;;;;;;;;;;5015181;28;19925;-57
2022/01/21 02:04:09;;;;;;;;;;;;;;;;;;4999633;28;19928;-58
2022/01/21 02:06:35;;;;;;;;;;;;;;;;;;5008100;28;19928;-59
2022/01/21 02:09:00;;;;;;;;;;;;;;;;;;5012686;28;19974;-58
2022/01/21 02:11:26;;;;;;;;;;;;;;;;;;5000662;28;20004;-57
2022/01/21 02:13:57;;;;;;;;;;;;;;;;;;5012536;28;19935;-57
2022/01/21 02:16:37;;;;;;;;;;;;;;;;;;5002708;28;19956;-57
2022/01/21 02:21:47;;;;;;;;;;;;;;;;;;5000930;28;19932;-57
2022/01/21 02:24:15;;;;;;;;;;;;;;;;;;5009369;28;20409;-58
2022/01/21 02:26:41;;;;;;;;;;;;;;;;;;5009908;28;19975;-58
2022/01/21 02:29:07;;;;;;;;;;;;;;;;;;5000396;28;20357;-57
2022/01/21 02:31:32;;;;;;;;;;;;;;;;;;4998186;28;20047;-59
2022/01/21 02:33:58;;;;;;;;;;;;;;;;;;4998421;28;19917;-58
2022/01/21 02:36:23;;;;;;;;;;;;;;;;;;5007885;28;19926;-58
2022/01/21 02:38:49;;;;;;;;;;;;;;;;;;5000683;28;19948;-58
2022/01/21 02:41:14;;;;;;;;;;;;;;;;;;4999076;28;19976;-58
2022/01/21 02:43:40;;;;;;;;;;;;;;;;;;4999060;28;19926;-58
2022/01/21 02:46:08;;;;;;;;;;;;;;;;;;4999796;28;19948;-57
2022/01/21 02:48:37;;;;;;;;;;;;;;;;;;4997425;28;19933;-58
2022/01/21 02:51:02;;;;;;;;;;;;;;;;;;4998227;28;20580;-57
2022/01/21 02:53:39;;;;;;;;;;;;;;;;;;5007939;28;19925;-57
2022/01/21 02:56:04;;;;;;;;;;;;;;;;;;5004723;28;20067;-56
2022/01/21 02:58:30;;;;;;;;;;;;;;;;;;4998614;28;20283;-57
2022/01/21 03:00:55;;;;;;;;;;;;;;;;;;4998498;28;19991;-58
2022/01/21 03:03:20;;;;;;;;;;;;;;;;;;4997858;28;20532;-56
2022/01/21 03:05:46;;;;;;;;;;;;;;;;;;4999874;28;19971;-58
2022/01/21 03:08:11;;;;;;;;;;;;;;;;;;4998278;28;19926;-57
2022/01/21 03:10:37;;;;;;;;;;;;;;;;;;4998530;28;20068;-57
2022/01/21 03:13:02;;;;;;;;;;;;;;;;;;5000447;28;19960;-57
2022/01/21 03:15:28;;;;;;;;;;;;;;;;;;5000238;28;19921;-57
2022/01/21 03:17:53;;;;;;;;;;;;;;;;;;5001049;28;19929;-58
2022/01/21 03:20:18;;;;;;;;;;;;;;;;;;4998988;28;19918;-56
2022/01/21 03:22:44;;;;;;;;;;;;;;;;;;5000386;28;19933;-58
2022/01/21 03:25:09;;;;;;;;;;;;;;;;;;4997818;28;20684;-57
2022/01/21 03:27:35;;;;;;;;;;;;;;;;;;4998121;28;19921;-57
2022/01/21 03:30:02;;;;;;;;;;;;;;;;;;4992459;28;19945;-57
2022/01/21 03:32:28;;;;;;;;;;;;;;;;;;4996833;28;19971;-58
2022/01/21 03:34:56;;;;;;;;;;;;;;;;;;4997883;28;21544;-57
2022/01/21 03:37:22;;;;;;;;;;;;;;;;;;4997633;28;19932;-59
2022/01/21 03:39:47;;;;;;;;;;;;;;;;;;5010975;28;19920;-58
2022/01/21 03:42:13;;;;;;;;;;;;;;;;;;5000537;28;19933;-56
2022/01/21 03:44:38;;;;;;;;;;;;;;;;;;4996684;28;19928;-58
2022/01/21 03:47:03;;;;;;;;;;;;;;;;;;5005554;28;19925;-56
2022/01/21 03:49:36;;;;;;;;;;;;;;;;;;5007924;28;20279;-58
2022/01/21 03:52:01;;;;;;;;;;;;;;;;;;5013063;28;20064;-56
2022/01/21 03:54:27;;;;;;;;;;;;;;;;;;5015760;28;20446;-57
2022/01/21 03:56:52;;;;;;;;;;;;;;;;;;5033944;28;19960;-57
2022/01/21 03:59:18;;;;;;;;;;;;;;;;;;5022041;28;19920;-57
2022/01/21 04:01:43;;;;;;;;;;;;;;;;;;5018222;28;19925;-58
2022/01/21 04:04:08;;;;;;;;;;;;;;;;;;5015920;28;19944;-56
2022/01/21 04:06:34;;;;;;;;;;;;;;;;;;5015719;28;19975;-56
2022/01/21 04:08:59;;;;;;;;;;;;;;;;;;5016022;28;19980;-56
2022/01/21 04:11:25;;;;;;;;;;;;;;;;;;5016736;28;19921;-56
2022/01/21 04:13:52;;;;;;;;;;;;;;;;;;5016861;28;19984;-56
2022/01/21 04:16:18;;;;;;;;;;;;;;;;;;5016813;28;20432;-56
2022/01/21 04:18:43;;;;;;;;;;;;;;;;;;5016679;28;20007;-58
2022/01/21 04:21:08;;;;;;;;;;;;;;;;;;5017580;28;19925;-57
2022/01/21 04:23:34;;;;;;;;;;;;;;;;;;5015158;28;20012;-58
2022/01/21 04:26:00;;;;;;;;;;;;;;;;;;5018036;28;19961;-58
2022/01/21 04:28:29;;;;;;;;;;;;;;;;;;5016433;28;19935;-57
2022/01/21 04:30:55;;;;;;;;;;;;;;;;;;5017555;28;20359;-58
2022/01/21 04:33:20;;;;;;;;;;;;;;;;;;5023515;28;19928;-59
2022/01/21 04:35:45;;;;;;;;;;;;;;;;;;5017227;28;20484;-58
2022/01/21 04:38:14;;;;;;;;;;;;;;;;;;5015842;28;20290;-57
2022/01/21 04:40:47;;;;;;;;;;;;;;;;;;5015196;28;19948;-60
2022/01/21 04:48:40;;;;;;;;;;;;;;;;;;5015385;28;19939;-58
2022/01/21 04:52:02;;;;;;;;;;;;;;;;;;5015294;28;20293;-56
2022/01/21 04:53:54;;;;;;;;;;;;;;;;;;5008574;28;20011;-57
2022/01/21 04:56:20;;;;;;;;;;;;;;;;;;5019318;28;20518;-55
2022/01/21 04:58:45;;;;;;;;;;;;;;;;;;5022863;28;20266;-58
2022/01/21 05:01:11;;;;;;;;;;;;;;;;;;5021749;28;19921;-58
2022/01/21 05:03:38;;;;;;;;;;;;;;;;;;5020331;28;20346;-57
2022/01/21 05:06:03;;;;;;;;;;;;;;;;;;5022177;28;20020;-57
2022/01/21 05:08:38;;;;;;;;;;;;;;;;;;5022543;28;20726;-57
2022/01/21 05:11:04;;;;;;;;;;;;;;;;;;5021927;28;20807;-58
2022/01/21 05:13:37;;;;;;;;;;;;;;;;;;5021871;28;19976;-57
2022/01/21 05:16:07;;;;;;;;;;;;;;;;;;5024676;28;19925;-54
2022/01/21 05:18:32;;;;;;;;;;;;;;;;;;5023799;28;19929;-57
2022/01/21 05:20:59;;;;;;;;;;;;;;;;;;5025364;28;19917;-57
2022/01/21 05:23:24;;;;;;;;;;;;;;;;;;5027873;28;19933;-58
2022/01/21 05:25:49;;;;;;;;;;;;;;;;;;5028014;28;19970;-57
2022/01/21 05:28:15;;;;;;;;;;;;;;;;;;5027447;28;19967;-58
2022/01/21 05:30:40;;;;;;;;;;;;;;;;;;5025841;28;20009;-57
2022/01/21 05:33:06;;;;;;;;;;;;;;;;;;5030265;28;19924;-58
2022/01/21 05:35:31;;;;;;;;;;;;;;;;;;5043496;28;20044;-58
2022/01/21 05:37:57;;;;;;;;;;;;;;;;;;5019865;28;19925;-54
2022/01/21 05:40:24;;;;;;;;;;;;;;;;;;5021271;28;19937;-57
2022/01/21 05:42:49;;;;;;;;;;;;;;;;;;5020126;28;20020;-57
2022/01/21 05:47:59;;;;;;;;;;;;;;;;;;5019444;28;19932;-55
2022/01/21 05:50:24;;;;;;;;;;;;;;;;;;5018980;28;19973;-57
2022/01/21 05:52:50;;;;;;;;;;;;;;;;;;5019327;28;20378;-57
2022/01/21 05:55:15;;;;;;;;;;;;;;;;;;5020218;28;20408;-57
2022/01/21 05:57:41;;;;;;;;;;;;;;;;;;5018962;28;19940;-57
2022/01/21 06:00:06;;;;;;;;;;;;;;;;;;5020594;28;19933;-58
2022/01/21 06:02:32;;;;;;;;;;;;;;;;;;5011445;28;19925;-57
2022/01/21 06:04:57;;;;;;;;;;;;;;;;;;5047735;28;19921;-58
2022/01/21 06:07:23;;;;;;;;;;;;;;;;;;5017836;28;20433;-58
2022/01/21 06:09:48;;;;;;;;;;;;;;;;;;5019853;28;20058;-57
2022/01/21 06:12:14;;;;;;;;;;;;;;;;;;5019082;28;19925;-58
2022/01/21 06:14:39;;;;;;;;;;;;;;;;;;5018014;28;20554;-57
2022/01/21 06:17:04;;;;;;;;;;;;;;;;;;5018728;28;19942;-57
2022/01/21 06:19:30;;;;;;;;;;;;;;;;;;5018797;28;19925;-58
2022/01/21 06:21:55;;;;;;;;;;;;;;;;;;5018544;28;20059;-57
2022/01/21 06:24:21;;;;;;;;;;;;;;;;;;5017523;28;19932;-58
2022/01/21 06:26:46;;;;;;;;;;;;;;;;;;5018865;28;20409;-58
2022/01/21 06:29:12;;;;;;;;;;;;;;;;;;5019735;28;19941;-58
2022/01/21 06:31:37;;;;;;;;;;;;;;;;;;5018320;28;19925;-59
2022/01/21 06:34:03;;;;;;;;;;;;;;;;;;5018515;28;21905;-58
2022/01/21 06:36:28;;;;;;;;;;;;;;;;;;5018163;28;19928;-58
2022/01/21 06:38:54;;;;;;;;;;;;;;;;;;5018998;28;19936;-58
2022/01/21 06:41:19;;;;;;;;;;;;;;;;;;5019389;28;19925;-57
2022/01/21 06:43:44;;;;;;;;;;;;;;;;;;5018957;28;19921;-58
2022/01/21 06:46:10;;;;;;;;;;;;;;;;;;5020237;28;19925;-58
2022/01/21 06:48:35;;;;;;;;;;;;;;;;;;5018437;28;19999;-58
2022/01/21 06:51:01;;;;;;;;;;;;;;;;;;5019677;28;19925;-58
2022/01/21 06:53:26;;;;;;;;;;;;;;;;;;5018410;28;19928;-57
2022/01/21 06:55:52;;;;;;;;;;;;;;;;;;5020005;28;19921;-58
2022/01/21 06:58:17;;;;;;;;;;;;;;;;;;5019930;28;19964;-58
2022/01/21 07:00:43;;;;;;;;;;;;;;;;;;5017987;28;19917;-56
2022/01/21 07:03:08;;;;;;;;;;;;;;;;;;5012304;28;19932;-55
2022/01/21 07:05:33;;;;;;;;;;;;;;;;;;5017389;28;20043;-58
2022/01/21 07:08:00;;;;;;;;;;;;;;;;;;5018148;28;20074;-58
2022/01/21 07:10:27;;;;;;;;;;;;;;;;;;5017860;28;19929;-58
2022/01/21 07:12:52;;;;;;;;;;;;;;;;;;5017640;28;19928;-58
2022/01/21 07:15:19;;;;;;;;;;;;;;;;;;5018455;28;19924;-58
2022/01/21 07:17:44;;;;;;;;;;;;;;;;;;5018065;28;20614;-58
2022/01/21 07:20:10;;;;;;;;;;;;;;;;;;5017576;28;19921;-58
2022/01/21 07:22:35;;;;;;;;;;;;;;;;;;5016776;28;19936;-58
2022/01/21 07:25:01;;;;;;;;;;;;;;;;;;5018314;28;19982;-58
2022/01/21 07:27:26;;;;;;;;;;;;;;;;;;5017297;28;19921;-57
2022/01/21 07:29:51;;;;;;;;;;;;;;;;;;5017853;28;20317;-57
2022/01/21 07:32:17;;;;;;;;;;;;;;;;;;5018665;28;19944;-58
2022/01/21 07:34:42;;;;;;;;;;;;;;;;;;5010559;28;19929;-58
2022/01/21 07:37:08;;;;;;;;;;;;;;;;;;5018287;28;19920;-56
2022/01/21 07:39:33;;;;;;;;;;;;;;;;;;5017753;28;19932;-57
2022/01/21 07:41:59;;;;;;;;;;;;;;;;;;5018087;28;19921;-55
2022/01/21 07:44:24;;;;;;;;;;;;;;;;;;5015695;28;19921;-58
2022/01/21 07:46:50;;;;;;;;;;;;;;;;;;5017551;28;19929;-57
2022/01/21 07:49:15;;;;;;;;;;;;;;;;;;5018175;28;19933;-56
2022/01/21 07:51:40;;;;;;;;;;;;;;;;;;5017651;28;19925;-57
2022/01/21 07:54:06;;;;;;;;;;;;;;;;;;5017903;28;19921;-56
2022/01/21 07:56:33;;;;;;;;;;;;;;;;;;5017224;28;19926;-57
2022/01/21 07:58:58;;;;;;;;;;;;;;;;;;5017164;28;19987;-58
2022/01/21 08:01:24;;;;;;;;;;;;;;;;;;5017147;28;20000;-58
2022/01/21 08:03:49;;;;;;;;;;;;;;;;;;5017584;28;19971;-57
2022/01/21 08:06:14;;;;;;;;;;;;;;;;;;5017610;28;20400;-56
2022/01/21 08:08:40;;;;;;;;;;;;;;;;;;5016242;28;19929;-57
2022/01/21 08:11:05;;;;;;;;;;;;;;;;;;5018423;28;19925;-56
2022/01/21 08:13:31;;;;;;;;;;;;;;;;;;5017726;28;19943;-57
2022/01/21 08:15:56;;;;;;;;;;;;;;;;;;5019224;28;19925;-57
2022/01/21 08:18:22;;;;;;;;;;;;;;;;;;5018371;28;19924;-57
2022/01/21 08:20:47;;;;;;;;;;;;;;;;;;5011582;28;19940;-57
2022/01/21 08:23:12;;;;;;;;;;;;;;;;;;5016763;28;20390;-57
2022/01/21 08:25:38;;;;;;;;;;;;;;;;;;5017026;28;20260;-57
2022/01/21 08:28:03;;;;;;;;;;;;;;;;;;5017068;28;20373;-56
2022/01/21 08:30:29;;;;;;;;;;;;;;;;;;5020332;28;19933;-57
2022/01/21 08:32:54;;;;;;;;;;;;;;;;;;5022768;28;19932;-56
2022/01/21 08:35:20;;;;;;;;;;;;;;;;;;5023179;28;19921;-57
2022/01/21 08:37:45;;;;;;;;;;;;;;;;;;5024506;28;21632;-57
2022/01/21 08:40:11;;;;;;;;;;;;;;;;;;5023889;28;19924;-58
2022/01/21 08:42:36;;;;;;;;;;;;;;;;;;5022462;28;19940;-56
2022/01/21 08:45:02;;;;;;;;;;;;;;;;;;5024778;28;20007;-57
2022/01/21 08:47:27;;;;;;;;;;;;;;;;;;5023261;28;20003;-57
2022/01/21 08:49:53;;;;;;;;;;;;;;;;;;5023655;28;20026;-58
2022/01/21 08:52:20;;;;;;;;;;;;;;;;;;5022920;28;19956;-57
2022/01/21 08:54:46;;;;;;;;;;;;;;;;;;5023579;28;19921;-58
2022/01/21 08:57:11;;;;;;;;;;;;;;;;;;5023432;28;20266;-58
2022/01/21 08:59:37;;;;;;;;;;;;;;;;;;5022666;28;19925;-58
2022/01/21 09:02:02;;;;;;;;;;;;;;;;;;5023460;28;20037;-56
2022/01/21 09:04:28;;;;;;;;;;;;;;;;;;5023246;28;19956;-57
2022/01/21 09:06:53;;;;;;;;;;;;;;;;;;5024621;28;20393;-58
2022/01/21 09:09:19;;;;;;;;;;;;;;;;;;5024391;28;20021;-58
2022/01/21 09:11:44;;;;;;;;;;;;;;;;;;5024942;28;21653;-57
2022/01/21 09:14:10;;;;;;;;;;;;;;;;;;5022507;28;20247;-57
2022/01/21 09:16:35;;;;;;;;;;;;;;;;;;5022765;28;19928;-58
2022/01/21 09:19:02;;;;;;;;;;;;;;;;;;5023312;28;19917;-57
2022/01/21 09:21:28;;;;;;;;;;;;;;;;;;5023427;28;19933;-57
2022/01/21 09:23:53;;;;;;;;;;;;;;;;;;5022369;28;21566;-57
2022/01/21 09:26:19;;;;;;;;;;;;;;;;;;5023312;28;20020;-57
2022/01/21 09:28:44;;;;;;;;;;;;;;;;;;5024210;28;20015;-55
2022/01/21 09:31:10;;;;;;;;;;;;;;;;;;5024245;28;19929;-57
2022/01/21 09:33:35;;;;;;;;;;;;;;;;;;5023948;28;19917;-57
2022/01/21 09:36:01;;;;;;;;;;;;;;;;;;5024461;28;21608;-58
2022/01/21 09:38:26;;;;;;;;;;;;;;;;;;5024151;28;19924;-57
2022/01/21 09:40:52;;;;;;;;;;;;;;;;;;5025615;28;19925;-57
2022/01/21 09:43:17;;;;;;;;;;;;;;;;;;5018269;28;19929;-57
2022/01/21 09:45:43;;;;;;;;;;;;;;;;;;5022375;28;20030;-58
2022/01/21 09:48:10;;;;;;;;;;;;;;;;;;5021081;28;19932;-57
2022/01/21 09:50:35;;;;;;;;;;;;;;;;;;5019385;28;19941;-58
2022/01/21 09:53:01;;;;;;;;;;;;;;;;;;5020935;28;19925;-57
2022/01/21 09:55:26;;;;;;;;;;;;;;;;;;5020516;28;19960;-56
2022/01/21 09:57:52;;;;;;;;;;;;;;;;;;5019904;28;20324;-56
2022/01/21 10:00:17;;;;;;;;;;;;;;;;;;5020317;28;19940;-57
2022/01/21 10:02:43;;;;;;;;;;;;;;;;;;5019363;28;19971;-57
2022/01/21 10:05:09;;;;;;;;;;;;;;;;;;5018168;28;19925;-56
2022/01/21 10:07:34;;;;;;;;;;;;;;;;;;5019049;28;20373;-57
2022/01/21 10:10:06;;;;;;;;;;;;;;;;;;5020665;28;19933;-56
2022/01/21 10:12:32;;;;;;;;;;;;;;;;;;5018687;28;19925;-57
2022/01/21 10:14:57;;;;;;;;;;;;;;;;;;5019347;28;19940;-57
2022/01/21 10:17:22;;;;;;;;;;;;;;;;;;5017888;28;19928;-57
2022/01/21 10:19:51;;;;;;;;;;;;;;;;;;5019863;28;20016;-57
2022/01/21 10:22:18;;;;;;;;;;;;;;;;;;5018732;28;19953;-54
2022/01/21 10:24:44;;;;;;;;;;;;;;;;;;5018142;28;19921;-57
2022/01/21 10:27:09;;;;;;;;;;;;;;;;;;5019738;28;19936;-56
2022/01/21 10:29:35;;;;;;;;;;;;;;;;;;5017700;28;20008;-57
2022/01/21 10:32:00;;;;;;;;;;;;;;;;;;5020448;28;20274;-54
2022/01/21 10:34:26;;;;;;;;;;;;;;;;;;5020037;28;20006;-57
2022/01/21 10:36:57;;;;;;;;;;;;;;;;;;5019292;28;19992;-55
2022/01/21 10:39:29;;;;;;;;;;;;;;;;;;5018659;28;21509;-56
2022/01/21 10:41:57;;;;;;;;;;;;;;;;;;5019519;28;19921;-57
2022/01/21 10:44:25;;;;;;;;;;;;;;;;;;5016325;28;20110;-56
2022/01/21 10:46:50;;;;;;;;;;;;;;;;;;5016741;28;19964;-56
2022/01/21 10:49:17;;;;;;;;;;;;;;;;;;5019719;28;20068;-57
2022/01/21 10:51:42;;;;;;;;;;;;;;;;;;5017410;28;19920;-56
2022/01/21 10:54:08;;;;;;;;;;;;;;;;;;5017842;28;19925;-56
2022/01/21 10:56:33;;;;;;;;;;;;;;;;;;5017921;28;19984;-55
2022/01/21 10:58:59;;;;;;;;;;;;;;;;;;5018796;28;20023;-57
2022/01/21 11:01:27;;;;;;;;;;;;;;;;;;5017530;28;20431;-54
2022/01/21 11:03:52;;;;;;;;;;;;;;;;;;5017609;28;20019;-56
2022/01/21 11:06:22;;;;;;;;;;;;;;;;;;5017850;28;20385;-56
2022/01/21 11:08:48;;;;;;;;;;;;;;;;;;5019499;28;20509;-57
2022/01/21 11:11:13;;;;;;;;;;;;;;;;;;5018325;28;19963;-56
2022/01/21 11:13:40;;;;;;;;;;;;;;;;;;5017483;28;20354;-57
2022/01/21 11:16:06;;;;;;;;;;;;;;;;;;5018856;28;20004;-56
2022/01/21 11:18:31;;;;;;;;;;;;;;;;;;5017897;28;20008;-54
2022/01/21 11:20:59;;;;;;;;;;;;;;;;;;5018597;28;19921;-57
2022/01/21 11:23:24;;;;;;;;;;;;;;;;;;5016886;28;19933;-57
2022/01/21 11:25:50;;;;;;;;;;;;;;;;;;5018183;28;20110;-57
2022/01/21 11:28:15;;;;;;;;;;;;;;;;;;5018185;28;20324;-56
2022/01/21 11:30:41;;;;;;;;;;;;;;;;;;5015819;28;19925;-57
2022/01/21 11:33:06;;;;;;;;;;;;;;;;;;5018114;28;19932;-57
2022/01/21 11:35:32;;;;;;;;;;;;;;;;;;5018329;28;19922;-55
2022/01/21 11:37:57;;;;;;;;;;;;;;;;;;5019250;28;19921;-56
2022/01/21 11:40:23;;;;;;;;;;;;;;;;;;5018505;28;19925;-56
2022/01/21 11:42:49;;;;;;;;;;;;;;;;;;5018254;28;19921;-56
2022/01/21 11:45:30;;;;;;;;;;;;;;;;;;5018062;28;19924;-57
2022/01/21 11:50:41;;;;;;;;;;;;;;;;;;5020738;28;19940;-55
2022/01/21 11:53:06;;;;;;;;;;;;;;;;;;5017752;28;19921;-56
2022/01/21 11:55:32;;;;;;;;;;;;;;;;;;5015717;28;19928;-57
2022/01/21 11:57:57;;;;;;;;;;;;;;;;;;5018476;28;20048;-57
2022/01/21 12:00:27;;;;;;;;;;;;;;;;;;5017714;28;19926;-57
2022/01/21 12:02:52;;;;;;;;;;;;;;;;;;5018372;28;19952;-57
2022/01/21 12:05:18;;;;;;;;;;;;;;;;;;5017325;28;20087;-57
2022/01/21 12:07:48;;;;;;;;;;;;;;;;;;5018899;28;19948;-56
2022/01/21 12:10:14;;;;;;;;;;;;;;;;;;5016947;28;20386;-57
2022/01/21 12:12:39;;;;;;;;;;;;;;;;;;5016407;28;19933;-57
2022/01/21 12:15:05;;;;;;;;;;;;;;;;;;5016890;28;20344;-57
2022/01/21 12:17:31;;;;;;;;;;;;;;;;;;5016741;28;20514;-57
2022/01/21 12:19:58;;;;;;;;;;;;;;;;;;5017532;28;20508;-55
2022/01/21 12:22:24;;;;;;;;;;;;;;;;;;5015236;28;21616;-56
2022/01/21 12:24:51;;;;;;;;;;;;;;;;;;5016674;28;19928;-57
2022/01/21 12:27:17;;;;;;;;;;;;;;;;;;5017167;28;19925;-57
2022/01/21 12:29:42;;;;;;;;;;;;;;;;;;5016060;28;20514;-56
2022/01/21 12:34:42;;;;;;;;;;;;;;;;;;5017236;28;19925;-57
2022/01/21 12:37:10;;;;;;;;;;;;;;;;;;5017673;28;20007;-56
2022/01/21 12:39:35;;;;;;;;;;;;;;;;;;5026239;28;19921;-57
2022/01/21 12:42:01;;;;;;;;;;;;;;;;;;5020748;28;21678;-57
2022/01/21 12:44:26;;;;;;;;;;;;;;;;;;5019558;28;20331;-57
2022/01/21 12:46:52;;;;;;;;;;;;;;;;;;5017177;28;19921;-54
2022/01/21 12:49:18;;;;;;;;;;;;;;;;;;5016597;28;19933;-57
2022/01/21 12:52:08;;;;;;;;;;;;;;;;;;5017043;28;20579;-57
2022/01/21 12:57:12;;;;;;;;;;;;;;;;;;5017681;28;19929;-57
2022/01/21 12:59:38;;;;;;;;;;;;;;;;;;5015189;28;19925;-54
2022/01/21 13:02:05;;;;;;;;;;;;;;;;;;5020156;28;19929;-55
2022/01/21 13:04:31;;;;;;;;;;;;;;;;;;5016147;28;20040;-54
2022/01/21 13:06:57;;;;;;;;;;;;;;;;;;5017826;28;20008;-57
2022/01/21 13:09:23;;;;;;;;;;;;;;;;;;5016273;28;19969;-57
2022/01/21 13:11:48;;;;;;;;;;;;;;;;;;5016010;28;20047;-56
2022/01/21 13:16:48;;;;;;;;;;;;;;;;;;5016471;28;20021;-57
2022/01/21 13:19:14;;;;;;;;;;;;;;;;;;5022759;28;20015;-57
2022/01/21 13:21:39;;;;;;;;;;;;;;;;;;5020643;28;19953;-57
2022/01/21 13:24:14;;;;;;;;;;;;;;;;;;5022133;28;19940;-57
2022/01/21 13:26:41;;;;;;;;;;;;;;;;;;5021401;28;19936;-57
2022/01/21 13:29:06;;;;;;;;;;;;;;;;;;5021446;28;19929;-57
2022/01/21 13:31:32;;;;;;;;;;;;;;;;;;5018980;28;19927;-56
2022/01/21 13:33:57;;;;;;;;;;;;;;;;;;5020160;28;20307;-58
2022/01/21 13:36:23;;;;;;;;;;;;;;;;;;5019683;28;20004;-58
2022/01/21 13:38:48;;;;;;;;;;;;;;;;;;5018983;28;20020;-54
2022/01/21 13:41:14;;;;;;;;;;;;;;;;;;5019702;28;20025;-58
2022/01/21 13:43:41;;;;;;;;;;;;;;;;;;5017308;28;19929;-56
2022/01/21 13:46:09;;;;;;;;;;;;;;;;;;5019833;28;19952;-54
2022/01/21 13:48:35;;;;;;;;;;;;;;;;;;5018281;28;19932;-57
2022/01/21 13:51:01;;;;;;;;;;;;;;;;;;5019063;28;20286;-56
2022/01/21 13:53:27;;;;;;;;;;;;;;;;;;5018931;28;19925;-57
2022/01/21 13:55:52;;;;;;;;;;;;;;;;;;5018338;28;19929;-56
2022/01/21 13:58:17;;;;;;;;;;;;;;;;;;5018725;28;20301;-57
2022/01/21 14:00:43;;;;;;;;;;;;;;;;;;5011851;28;19923;-55
2022/01/21 14:03:08;;;;;;;;;;;;;;;;;;5017794;28;19929;-56
2022/01/21 14:05:34;;;;;;;;;;;;;;;;;;5017407;28;20285;-56
2022/01/21 14:07:59;;;;;;;;;;;;;;;;;;5019303;28;19925;-57
2022/01/21 14:10:25;;;;;;;;;;;;;;;;;;5018294;28;19925;-58
2022/01/21 14:12:50;;;;;;;;;;;;;;;;;;5014960;28;19932;-55
2022/01/21 14:15:16;;;;;;;;;;;;;;;;;;5018578;28;19925;-57
2022/01/21 14:17:41;;;;;;;;;;;;;;;;;;5019201;28;19921;-55
2022/01/21 14:20:14;;;;;;;;;;;;;;;;;;5019665;28;20813;-56
2022/01/21 14:22:40;;;;;;;;;;;;;;;;;;5018489;28;20397;-57
2022/01/21 14:25:05;;;;;;;;;;;;;;;;;;5019162;28;19967;-56
2022/01/21 14:27:31;;;;;;;;;;;;;;;;;;5017901;28;20481;-56
2022/01/21 14:29:59;;;;;;;;;;;;;;;;;;5018722;28;20401;-56
2022/01/21 14:32:27;;;;;;;;;;;;;;;;;;5017832;28;20453;-56
2022/01/21 14:34:53;;;;;;;;;;;;;;;;;;5019553;28;19949;-56
2022/01/21 14:37:18;;;;;;;;;;;;;;;;;;5018308;28;20682;-55
2022/01/21 14:39:43;;;;;;;;;;;;;;;;;;5019125;28;20302;-56
2022/01/21 14:42:09;;;;;;;;;;;;;;;;;;5017323;28;19921;-56
2022/01/21 14:44:34;;;;;;;;;;;;;;;;;;5017822;28;19925;-53
2022/01/21 14:47:00;;;;;;;;;;;;;;;;;;5018074;28;19921;-56
2022/01/21 14:49:25;;;;;;;;;;;;;;;;;;5017825;28;19929;-57
2022/01/21 14:52:36;;;;;;;;;;;;;;;;;;5019086;28;19921;-56
2022/01/21 14:54:36;;;;;;;;;;;;;;;;;;5013228;28;19932;-57
2022/01/21 14:57:01;;;;;;;;;;;;;;;;;;5021055;28;19929;-55
2022/01/21 14:59:27;;;;;;;;;;;;;;;;;;5020555;28;19921;-56
2022/01/21 15:01:52;;;;;;;;;;;;;;;;;;5024336;28;19956;-56
2022/01/21 15:04:18;;;;;;;;;;;;;;;;;;5023523;28;20621;-57
2022/01/21 15:06:43;;;;;;;;;;;;;;;;;;5020852;28;19917;-54
2022/01/21 15:09:09;;;;;;;;;;;;;;;;;;5018106;28;19933;-56
2022/01/21 15:11:56;;;;;;;;;;;;;;;;;;5017043;28;19929;-56
2022/01/21 15:16:50;;;;;;;;;;;;;;;;;;5019349;28;19921;-57
2022/01/21 15:19:15;;;;;;;;;;;;;;;;;;5019032;28;19925;-57
2022/01/21 15:21:41;;;;;;;;;;;;;;;;;;5017080;28;19921;-57
2022/01/21 15:24:06;;;;;;;;;;;;;;;;;;5017669;28;19933;-56
2022/01/21 15:26:31;;;;;;;;;;;;;;;;;;5017681;28;20406;-57
2022/01/21 15:28:57;;;;;;;;;;;;;;;;;;5017545;28;19982;-57
2022/01/21 15:31:22;;;;;;;;;;;;;;;;;;5016369;28;20397;-58
2022/01/21 15:33:48;;;;;;;;;;;;;;;;;;5020674;28;19921;-55
2022/01/21 15:36:13;;;;;;;;;;;;;;;;;;5022234;28;19925;-57
2022/01/21 15:38:40;;;;;;;;;;;;;;;;;;5021794;28;19928;-57
2022/01/21 15:41:05;;;;;;;;;;;;;;;;;;5025524;28;19956;-57
2022/01/21 15:43:31;;;;;;;;;;;;;;;;;;5023371;28;19979;-57
2022/01/21 15:45:56;;;;;;;;;;;;;;;;;;5019190;28;19956;-56
2022/01/21 15:48:23;;;;;;;;;;;;;;;;;;5042559;28;19921;-56
2022/01/21 15:50:49;;;;;;;;;;;;;;;;;;5018572;28;20473;-56
2022/01/21 15:53:16;;;;;;;;;;;;;;;;;;5018989;28;20020;-57
2022/01/21 15:55:41;;;;;;;;;;;;;;;;;;5017142;28;19925;-57
2022/01/21 15:58:06;;;;;;;;;;;;;;;;;;5017898;28;19921;-57
2022/01/21 16:00:32;;;;;;;;;;;;;;;;;;5016612;28;19925;-54
2022/01/21 16:03:02;;;;;;;;;;;;;;;;;;5017074;28;19975;-56
2022/01/21 16:05:27;;;;;;;;;;;;;;;;;;5016370;28;19925;-56
2022/01/21 16:07:53;;;;;;;;;;;;;;;;;;5017038;28;19921;-54
2022/01/21 16:10:18;;;;;;;;;;;;;;;;;;5016322;28;19929;-58
2022/01/21 16:12:44;;;;;;;;;;;;;;;;;;5017718;28;19944;-55
2022/01/21 16:15:09;;;;;;;;;;;;;;;;;;5016788;28;20018;-57
2022/01/21 16:17:35;;;;;;;;;;;;;;;;;;5016015;28;19975;-55
2022/01/21 16:20:00;;;;;;;;;;;;;;;;;;5017779;28;20425;-56
2022/01/21 16:22:26;;;;;;;;;;;;;;;;;;5016111;28;19929;-57
2022/01/21 16:24:51;;;;;;;;;;;;;;;;;;5017283;28;19929;-57
2022/01/21 16:27:16;;;;;;;;;;;;;;;;;;5017708;28;19918;-55
2022/01/21 16:29:42;;;;;;;;;;;;;;;;;;5025033;28;19936;-55
2022/01/21 16:32:07;;;;;;;;;;;;;;;;;;5017390;28;19921;-59
2022/01/21 16:34:34;;;;;;;;;;;;;;;;;;5023148;28;19932;-54
2022/01/21 16:37:00;;;;;;;;;;;;;;;;;;5017527;28;19921;-58
2022/01/21 16:39:25;;;;;;;;;;;;;;;;;;5017879;28;20858;-57
2022/01/21 16:41:51;;;;;;;;;;;;;;;;;;5019030;28;20439;-56
2022/01/21 16:44:16;;;;;;;;;;;;;;;;;;5018238;28;20065;-56
2022/01/21 16:46:42;;;;;;;;;;;;;;;;;;5017592;28;19932;-57
2022/01/21 16:49:07;;;;;;;;;;;;;;;;;;5018240;28;20381;-57
2022/01/21 16:51:32;;;;;;;;;;;;;;;;;;5018175;28;19925;-56
2022/01/21 16:53:58;;;;;;;;;;;;;;;;;;5020797;28;19922;-57
2022/01/21 16:56:25;;;;;;;;;;;;;;;;;;5021431;28;20012;-55
2022/01/21 16:58:51;;;;;;;;;;;;;;;;;;5015549;28;20016;-56
2022/01/21 17:01:16;;;;;;;;;;;;;;;;;;5022330;28;19980;-56
2022/01/21 17:03:42;;;;;;;;;;;;;;;;;;5021227;28;19925;-56
2022/01/21 17:06:07;;;;;;;;;;;;;;;;;;5022040;28;20478;-55
2022/01/21 17:08:33;;;;;;;;;;;;;;;;;;5021564;28;19961;-57
2022/01/21 17:10:58;;;;;;;;;;;;;;;;;;5023213;28;19925;-56
2022/01/21 17:13:24;;;;;;;;;;;;;;;;;;5024868;28;19936;-57
2022/01/21 17:15:49;;;;;;;;;;;;;;;;;;5023327;28;19921;-57
2022/01/21 17:18:17;;;;;;;;;;;;;;;;;;5025556;28;19932;-57
2022/01/21 17:20:43;;;;;;;;;;;;;;;;;;5025784;28;20681;-54
2022/01/21 17:23:08;;;;;;;;;;;;;;;;;;5029321;28;20012;-56
2022/01/21 17:25:34;;;;;;;;;;;;;;;;;;5027967;28;20362;-57
2022/01/21 17:27:59;;;;;;;;;;;;;;;;;;5030163;28;19985;-55
2022/01/21 17:30:25;;;;;;;;;;;;;;;;;;5028040;28;19964;-57
2022/01/21 17:32:50;;;;;;;;;;;;;;;;;;5027255;28;20051;-57
2022/01/21 17:35:15;;;;;;;;;;;;;;;;;;5028034;28;19925;-58
2022/01/21 17:37:41;;;;;;;;;;;;;;;;;;5023639;28;19925;-56